Time;durP1;ratioP1;P1;durP2;ratioP2;P2;SDS_P1;SDS_P2;PMS_P1;PMS_P2;Temp;Humidity;BMP_temperature;BMP_pressure;BME280_temperature;BME280_humidity;BME280_pressure;Samples;Min_cycle;Max_cycle;Signal;HPM_P1;HPM_P2
2023/04/07 00:01:42;;;;;;;;;;;154.40;2252.80;;;;;;5072989;28;20016;-68
2023/04/07 00:04:08;;;;;;;32.80;20.88;;;154.30;2252.80;;;;;;5072803;28;20353;-68
2023/04/07 00:06:34;;;;;;;;;;;154.30;2252.80;;;;;;5073225;28;20186;-73
2023/04/07 00:08:59;;;;;;;35.72;22.63;;;154.40;2252.80;;;;;;5072505;28;20404;-75
2023/04/07 00:11:25;;;;;;;;;;;154.40;2252.80;;;;;;5073014;28;20078;-73
2023/04/07 00:13:50;;;;;;;36.90;22.25;;;154.50;2252.80;;;;;;5075566;28;19913;-69
2023/04/07 00:16:16;;;;;;;;;;;154.40;2252.80;;;;;;5076592;28;20378;-69
2023/04/07 00:18:42;;;;;;;35.60;22.45;;;154.40;2252.80;;;;;;5076115;28;20011;-68
2023/04/07 00:21:07;;;;;;;;;;;154.50;2252.80;;;;;;5076562;28;20031;-76
2023/04/07 00:23:33;;;;;;;41.63;25.65;;;154.50;2252.80;;;;;;5076197;28;20436;-69
2023/04/07 00:25:59;;;;;;;;;;;179.20;2252.80;;;;;;5076343;28;20103;-71
2023/04/07 00:28:25;;;;;;;35.17;21.15;;;154.50;2252.80;;;;;;5075922;28;20277;-68
2023/04/07 00:30:51;;;;;;;;;;;179.20;2252.80;;;;;;5076302;28;20024;-76
2023/04/07 00:33:16;;;;;;;36.63;22.25;;;179.20;2252.80;;;;;;5076019;28;19904;-68
2023/04/07 00:35:42;;;;;;;;;;;179.20;2252.80;;;;;;5076236;28;20025;-73
2023/04/07 00:38:08;;;;;;;42.05;23.15;;;179.20;2252.80;;;;;;5075481;28;19920;-75
2023/04/07 00:40:33;;;;;;;;;;;179.30;2252.80;;;;;;5075953;28;20377;-73
2023/04/07 00:42:59;;;;;;;40.58;22.85;;;179.30;2252.80;;;;;;5075476;28;19911;-67
2023/04/07 00:45:24;;;;;;;;;;;179.30;2252.80;;;;;;5075873;28;20047;-69
2023/04/07 00:47:50;;;;;;;36.88;22.42;;;179.40;2252.80;;;;;;5075540;28;19914;-68
2023/04/07 00:50:17;;;;;;;;;;;179.40;2252.80;;;;;;5076046;28;20055;-68
2023/04/07 00:52:43;;;;;;;35.78;21.27;;;179.40;2252.80;;;;;;5075401;28;19909;-68
2023/04/07 00:55:09;;;;;;;34.78;20.55;;;179.40;2252.80;;;;;;5075256;28;20027;-68
2023/04/07 00:57:35;;;;;;;;;;;179.40;2252.80;;;;;;5075593;28;20028;-68
2023/04/07 01:00:01;;;;;;;30.90;20.02;;;179.40;2252.80;;;;;;5075102;28;19911;-67
2023/04/07 01:02:36;;;;;;;;;;;179.40;2252.80;;;;;;5075597;28;20051;-68
2023/04/07 01:05:01;;;;;;;31.10;18.35;;;179.40;2252.80;;;;;;5075108;28;19904;-67
2023/04/07 01:07:31;;;;;;;;;;;179.40;2252.80;;;;;;5075211;28;20082;-68
2023/04/07 01:10:06;;;;;;;45.75;25.98;;;179.40;2252.80;;;;;;5074405;28;19904;-68
2023/04/07 01:12:49;;;;;;;69.13;38.20;;;179.40;2252.80;;;;;;5074275;28;20021;-68
2023/04/07 01:15:19;;;;;;;140.52;71.13;;;179.50;2252.80;;;;;;5074288;28;20033;-68
2023/04/07 01:17:51;;;;;;;146.60;73.30;;;179.50;2252.80;;;;;;5074184;28;20035;-68
2023/04/07 01:20:21;;;;;;;127.60;64.22;;;179.50;2252.80;;;;;;5074196;28;20051;-68
2023/04/07 01:22:53;;;;;;;108.30;63.22;;;179.40;2252.80;;;;;;5073591;28;20388;-68
2023/04/07 01:25:29;;;;;;;61.63;38.35;;;179.40;2252.80;;;;;;5073987;28;20427;-68
2023/04/07 01:28:04;;;;;;;43.78;27.23;;;179.40;2252.80;;;;;;5074150;28;20099;-68
2023/04/07 01:30:33;;;;;;;36.53;22.25;;;179.40;2252.80;;;;;;5074078;28;20082;-68
2023/04/07 01:33:00;;;;;;;29.30;19.83;;;179.40;2252.80;;;;;;5073887;28;20466;-68
2023/04/07 01:35:30;;;;;;;32.15;20.50;;;179.40;2252.80;;;;;;5073844;28;20419;-68
2023/04/07 01:37:57;;;;;;;37.55;23.15;;;179.40;2252.80;;;;;;5074071;28;20060;-68
2023/04/07 01:40:24;;;;;;;42.35;26.83;;;179.40;2252.80;;;;;;5073598;28;20027;-68
2023/04/07 01:42:51;;;;;;;49.00;27.80;;;179.40;2252.80;;;;;;5073698;28;20025;-68
2023/04/07 01:45:17;;;;;;;39.53;25.83;;;179.40;2252.80;;;;;;5073416;28;20119;-68
2023/04/07 01:47:44;;;;;;;31.25;21.02;;;179.30;2252.80;;;;;;5073670;28;20056;-68
2023/04/07 01:50:11;;;;;;;36.33;21.08;;;179.30;2252.80;;;;;;5073474;28;20023;-68
2023/04/07 01:52:38;;;;;;;43.03;24.02;;;179.20;2252.80;;;;;;5073497;28;20492;-68
2023/04/07 01:55:05;;;;;;;35.40;22.42;;;179.20;2252.80;;;;;;5073417;28;20081;-68
2023/04/07 01:57:31;;;;;;;37.30;22.33;;;179.20;2252.80;;;;;;5073297;28;20020;-68
2023/04/07 01:59:57;;;;;;;;;;;179.30;2252.80;;;;;;5073963;28;20033;-68
2023/04/07 02:02:23;;;;;;;34.47;19.85;;;179.30;2252.80;;;;;;5073361;28;20471;-68
2023/04/07 02:04:58;;;;;;;35.95;21.75;;;179.30;2252.80;;;;;;5073246;28;20028;-68
2023/04/07 02:08:10;;;;;;;33.90;21.27;;;179.30;2252.80;;;;;;5073323;28;20029;-68
2023/04/07 02:10:37;;;;;;;32.58;20.88;;;179.20;2252.80;;;;;;5070810;28;20037;-68
2023/04/07 02:13:07;;;;;;;37.58;21.38;;;179.30;2252.80;;;;;;5073231;28;20056;-68
2023/04/07 02:15:35;;;;;;;39.03;22.40;;;179.20;2252.80;;;;;;5072907;28;20029;-68
2023/04/07 02:18:03;;;;;;;36.42;22.42;;;179.20;2252.80;;;;;;5072993;28;20042;-68
2023/04/07 02:20:29;;;;;;;36.40;22.35;;;154.50;2252.80;;;;;;5073161;28;20021;-68
2023/04/07 02:22:55;;;;;;;;;;;179.20;2252.80;;;;;;5073466;28;20032;-68
2023/04/07 02:25:28;;;;;;;35.45;20.17;;;179.30;2252.80;;;;;;5072903;28;19927;-68
2023/04/07 02:27:55;;;;;;;32.38;21.38;;;179.20;2252.80;;;;;;5072959;28;20086;-68
2023/04/07 02:30:22;;;;;;;36.17;21.38;;;154.40;2252.80;;;;;;5072892;28;20429;-68
2023/04/07 02:32:48;;;;;;;29.33;19.40;;;154.50;2252.80;;;;;;5072834;28;20470;-68
2023/04/07 02:35:14;;;;;;;;;;;154.50;2252.80;;;;;;5072555;28;20032;-68
2023/04/07 02:37:40;;;;;;;36.22;18.55;;;154.50;2252.80;;;;;;5072829;28;19912;-68
2023/04/07 02:40:05;;;;;;;;;;;154.20;2252.80;;;;;;5073178;28;20028;-68
2023/04/07 02:42:31;;;;;;;37.85;19.92;;;154.10;2252.80;;;;;;5072657;28;19905;-68
2023/04/07 02:44:57;;;;;;;;;;;154.20;2252.80;;;;;;5072774;28;20409;-68
2023/04/07 02:47:24;;;;;;;33.33;20.08;;;154.20;2252.80;;;;;;5071434;28;19919;-68
2023/04/07 02:49:49;;;;;;;32.95;20.88;;;154.30;2252.80;;;;;;5072693;28;20025;-68
2023/04/07 02:52:16;;;;;;;;;;;154.20;2252.80;;;;;;5073035;28;20029;-68
2023/04/07 02:54:41;;;;;;;31.85;18.90;;;154.20;2252.80;;;;;;5072610;28;20368;-68
2023/04/07 02:57:07;;;;;;;;;;;154.00;2252.80;;;;;;5072885;28;20112;-68
2023/04/07 02:59:33;;;;;;;37.80;21.13;;;154.00;2252.80;;;;;;5072426;28;19909;-68
2023/04/07 03:01:58;;;;;;;;;;;154.10;2252.80;;;;;;5072977;28;20044;-68
2023/04/07 03:04:24;;;;;;;39.25;20.30;;;153.80;2252.80;;;;;;5072585;28;19916;-68
2023/04/07 03:06:49;;;;;;;;;;;153.70;2252.80;;;;;;5072997;28;20027;-68
2023/04/07 03:09:15;;;;;;;34.58;20.10;;;128.90;2252.80;;;;;;5072542;28;20910;-68
2023/04/07 03:11:41;;;;;;;;;;;128.90;2252.80;;;;;;5072912;28;20025;-67
2023/04/07 03:14:07;;;;;;;42.95;22.92;;;128.90;2252.80;;;;;;5072366;28;19909;-68
2023/04/07 03:16:32;;;;;;;;;;;153.70;2252.80;;;;;;5072670;28;20037;-67
2023/04/07 03:18:58;;;;;;;36.55;20.60;;;153.60;2252.80;;;;;;5071009;28;19915;-67
2023/04/07 03:21:23;;;;;;;;;;;153.60;2252.80;;;;;;5072894;28;20104;-68
2023/04/07 03:23:49;;;;;;;39.63;23.00;;;153.60;2252.80;;;;;;5072299;28;19943;-67
2023/04/07 03:26:15;;;;;;;;;;;153.70;2252.80;;;;;;5072631;28;20016;-67
2023/04/07 03:28:41;;;;;;;34.63;21.55;;;153.60;2252.80;;;;;;5072387;28;19904;-68
2023/04/07 03:31:06;;;;;;;;;;;153.60;2252.80;;;;;;5072566;28;20033;-68
2023/04/07 03:33:32;;;;;;;37.00;21.75;;;153.60;2252.80;;;;;;5072276;28;20465;-68
2023/04/07 03:35:58;;;;;;;;;;;153.70;2252.80;;;;;;5072640;28;20059;-68
2023/04/07 03:38:24;;;;;;;39.08;22.85;;;153.70;2252.80;;;;;;5072120;28;20007;-68
2023/04/07 03:40:50;;;;;;;41.50;23.83;;;153.80;2252.80;;;;;;5072022;28;20033;-67
2023/04/07 03:43:15;;;;;;;;;;;153.90;2252.80;;;;;;5072519;28;20032;-68
2023/04/07 03:45:41;;;;;;;38.00;22.77;;;153.90;2252.80;;;;;;5071862;28;19925;-68
2023/04/07 03:48:10;;;;;;;;;;;153.70;2252.80;;;;;;5076118;28;20119;-68
2023/04/07 03:50:38;;;;;;;41.70;24.23;;;153.70;2252.80;;;;;;5075775;28;19983;-68
2023/04/07 03:53:04;;;;;;;37.30;24.08;;;153.70;2252.80;;;;;;5075931;28;20029;-68
2023/04/07 03:55:30;;;;;;;;;;;153.80;2252.80;;;;;;5076181;28;20016;-68
2023/04/07 03:57:56;;;;;;;38.47;23.52;;;153.70;2252.80;;;;;;5075534;28;19912;-68
2023/04/07 04:00:22;;;;;;;;;;;153.70;2252.80;;;;;;5076159;28;20035;-68
2023/04/07 04:02:48;;;;;;;44.42;24.77;;;153.70;2252.80;;;;;;5075542;28;20431;-68
2023/04/07 04:05:13;;;;;;;;;;;128.90;2252.80;;;;;;5076218;28;20095;-68
2023/04/07 04:07:39;;;;;;;38.00;23.30;;;128.90;2252.80;;;;;;5075478;28;19957;-70
2023/04/07 04:10:05;;;;;;;;;;;128.80;2252.80;;;;;;5075917;28;20107;-68
2023/04/07 04:12:31;;;;;;;37.10;22.77;;;128.90;2252.80;;;;;;5075489;28;20057;-68
2023/04/07 04:14:56;;;;;;;;;;;128.90;2252.80;;;;;;5075674;28;20382;-67
2023/04/07 04:17:22;;;;;;;40.88;24.77;;;128.90;2252.80;;;;;;5075282;28;19916;-67
2023/04/07 04:19:48;;;;;;;;;;;128.70;2252.80;;;;;;5075673;28;20025;-68
2023/04/07 04:22:13;;;;;;;39.35;23.55;;;128.80;2252.80;;;;;;5075450;28;20380;-68
2023/04/07 04:24:40;;;;;;;;;;;128.70;2252.80;;;;;;5075563;28;20032;-68
2023/04/07 04:27:06;;;;;;;32.17;18.58;;;153.60;2252.80;;;;;;5075189;28;20352;-68
2023/04/07 04:29:32;;;;;;;;;;;128.90;2252.80;;;;;;5075660;28;20024;-68
2023/04/07 04:31:57;;;;;;;43.15;23.48;;;128.80;2252.80;;;;;;5075248;28;19904;-68
2023/04/07 04:34:23;;;;;;;;;;;128.80;2252.80;;;;;;5074890;28;20389;-67
2023/04/07 04:36:49;;;;;;;50.13;26.20;;;128.90;2252.80;;;;;;5064495;28;20017;-68
2023/04/07 04:39:14;;;;;;;;;;;153.70;2252.80;;;;;;5063109;28;20075;-68
2023/04/07 04:41:40;;;;;;;47.45;26.05;;;153.60;2252.80;;;;;;5057808;28;19908;-67
2023/04/07 04:44:06;;;;;;;;;;;153.70;2252.80;;;;;;5062377;28;20033;-67
2023/04/07 04:46:31;;;;;;;56.30;28.10;;;153.70;2252.80;;;;;;5066372;28;19963;-67
2023/04/07 04:48:57;;;;;;;;;;;153.60;2252.80;;;;;;5064088;28;20501;-68
2023/04/07 04:51:23;;;;;;;45.53;25.95;;;153.70;2252.80;;;;;;5064691;28;19909;-67
2023/04/07 04:53:48;;;;;;;;;;;153.70;2252.80;;;;;;5063844;28;20102;-67
2023/04/07 04:56:14;;;;;;;39.90;23.85;;;153.70;2252.80;;;;;;5066844;28;19912;-67
2023/04/07 04:58:44;;;;;;;;;;;128.90;2252.80;;;;;;5057784;28;20041;-67
2023/04/07 05:01:14;;;;;;;42.10;24.00;;;153.60;2252.80;;;;;;5062810;28;19999;-68
2023/04/07 05:03:40;;;;;;;42.45;25.10;;;153.80;2252.80;;;;;;5060947;28;20028;-67
2023/04/07 05:06:06;;;;;;;;;;;153.70;2252.80;;;;;;5063215;28;20488;-68
2023/04/07 05:08:31;;;;;;;45.50;26.15;;;153.70;2252.80;;;;;;5063833;28;19909;-68
2023/04/07 05:10:57;;;;;;;;;;;128.90;2252.80;;;;;;5058102;28;20383;-67
2023/04/07 05:13:24;;;;;;;44.75;25.95;;;153.60;2252.80;;;;;;5064327;28;20491;-68
2023/04/07 05:15:50;;;;;;;47.97;25.35;;;128.90;2252.80;;;;;;5064277;28;20059;-67
2023/04/07 05:18:15;;;;;;;;;;;128.70;2252.80;;;;;;5059092;28;20040;-67
2023/04/07 05:20:42;;;;;;;48.72;28.20;;;128.60;2252.80;;;;;;5065872;28;19909;-67
2023/04/07 05:23:08;;;;;;;51.58;29.27;;;128.60;2252.80;;;;;;5063133;28;20025;-67
2023/04/07 05:25:34;;;;;;;;;;;128.60;2252.80;;;;;;5067318;28;20052;-67
2023/04/07 05:28:00;;;;;;;52.00;26.40;;;128.50;2252.80;;;;;;5064766;28;19927;-67
2023/04/07 05:30:25;;;;;;;;;;;128.60;2252.80;;;;;;5065014;28;20055;-68
2023/04/07 05:32:52;;;;;;;63.42;32.45;;;128.70;2252.80;;;;;;5063882;28;19954;-68
2023/04/07 05:35:18;;;;;;;65.95;32.15;;;128.60;2252.80;;;;;;5066030;28;20021;-70
2023/04/07 05:37:43;;;;;;;;;;;128.70;2252.80;;;;;;5065429;28;20390;-69
2023/04/07 05:40:09;;;;;;;59.72;32.03;;;128.70;2252.80;;;;;;5060649;28;19905;-70
2023/04/07 05:42:35;;;;;;;56.17;30.77;;;128.70;2252.80;;;;;;5065236;28;20025;-69
2023/04/07 05:45:01;;;;;;;;;;;128.60;2252.80;;;;;;5065174;28;20036;-69
2023/04/07 05:47:27;;;;;;;63.53;31.23;;;128.60;2252.80;;;;;;5060338;28;20341;-77
2023/04/07 05:49:52;;;;;;;;;;;128.60;2252.80;;;;;;5064862;28;20048;-70
2023/04/07 05:52:18;;;;;;;65.35;34.53;;;128.60;2252.80;;;;;;5058433;28;19930;-70
2023/04/07 05:54:43;;;;;;;;;;;128.70;2252.80;;;;;;5061430;28;20479;-69
2023/04/07 05:57:09;;;;;;;53.38;27.63;;;128.90;2252.80;;;;;;5060696;28;19913;-70
2023/04/07 05:59:35;;;;;;;;;;;128.80;2252.80;;;;;;5061329;28;20120;-70
2023/04/07 06:02:02;;;;;;;55.50;28.77;;;128.80;2252.80;;;;;;5080198;28;19915;-68
2023/04/07 06:04:27;;;;;;;54.00;29.05;;;128.70;2252.80;;;;;;5065965;28;20074;-69
2023/04/07 06:06:54;;;;;;;;;;;128.70;2252.80;;;;;;5061027;28;20032;-69
2023/04/07 06:09:21;;;;;;;59.78;30.42;;;128.80;2252.80;;;;;;5063315;28;20381;-71
2023/04/07 06:11:47;;;;;;;58.47;28.50;;;128.90;2252.80;;;;;;5058470;28;20021;-69
2023/04/07 06:14:12;;;;;;;;;;;128.90;2252.80;;;;;;5060286;28;20035;-69
2023/04/07 06:16:38;;;;;;;63.58;31.08;;;128.90;2252.80;;;;;;5061607;28;20007;-68
2023/04/07 06:19:04;;;;;;;;;;;128.90;2252.80;;;;;;5055191;28;20121;-71
2023/04/07 06:21:30;;;;;;;63.53;32.70;;;153.70;2252.80;;;;;;5057750;28;19967;-70
2023/04/07 06:23:56;;;;;;;67.68;34.08;;;153.70;2252.80;;;;;;5065944;28;20040;-67
2023/04/07 06:26:22;;;;;;;;;;;153.60;2252.80;;;;;;5061562;28;20392;-69
2023/04/07 06:28:48;;;;;;;52.20;27.85;;;128.90;2252.80;;;;;;5062980;28;19962;-70
2023/04/07 06:31:13;;;;;;;;;;;153.60;2252.80;;;;;;5065283;28;20111;-70
2023/04/07 06:33:39;;;;;;;50.40;27.10;;;128.90;2252.80;;;;;;5062192;28;19904;-71
2023/04/07 06:36:05;;;;;;;;;;;128.80;2252.80;;;;;;5066756;28;20102;-71
2023/04/07 06:38:30;;;;;;;62.83;31.02;;;128.90;2252.80;;;;;;5059054;28;19917;-75
2023/04/07 06:40:56;;;;;;;;;;;153.80;2252.80;;;;;;5057633;28;20067;-71
2023/04/07 06:43:22;;;;;;;56.67;30.60;;;153.70;2252.80;;;;;;5058383;28;19916;-72
2023/04/07 06:45:47;;;;;;;;;;;153.80;2252.80;;;;;;5062078;28;20053;-71
2023/04/07 06:48:13;;;;;;;57.80;28.80;;;153.80;2252.80;;;;;;5060603;28;19919;-70
2023/04/07 06:50:40;;;;;;;63.42;33.05;;;153.90;2252.80;;;;;;5062772;28;20049;-70
2023/04/07 06:53:05;;;;;;;;;;;153.90;2252.80;;;;;;5056052;28;20036;-70
2023/04/07 06:55:31;;;;;;;119.80;47.20;;;153.70;2252.80;;;;;;5062545;28;19996;-69
2023/04/07 06:57:56;;;;;;;;;;;153.80;2252.80;;;;;;5060776;28;20043;-68
2023/04/07 07:00:22;;;;;;;67.10;32.97;;;153.80;2252.80;;;;;;5061746;28;20274;-69
2023/04/07 07:02:48;;;;;;;;;;;153.80;2252.80;;;;;;5065717;28;20107;-69
2023/04/07 07:05:14;;;;;;;66.03;31.48;;;153.90;2252.80;;;;;;5061013;28;19904;-72
2023/04/07 07:07:40;;;;;;;;;;;153.80;2252.80;;;;;;5062646;28;20474;-68
2023/04/07 07:10:08;;;;;;;65.93;30.67;;;153.90;2252.80;;;;;;5059258;28;19911;-70
2023/04/07 07:12:34;;;;;;;61.75;31.00;;;153.90;2252.80;;;;;;5061418;28;20021;-69
2023/04/07 07:14:59;;;;;;;;;;;153.90;2252.80;;;;;;5064546;28;20093;-71
2023/04/07 07:17:25;;;;;;;52.13;29.35;;;154.00;2252.80;;;;;;5060516;28;20070;-68
2023/04/07 07:19:51;;;;;;;;;;;154.10;2252.80;;;;;;5062333;28;20021;-70
2023/04/07 07:22:16;;;;;;;61.80;32.70;;;154.10;2252.80;;;;;;5062766;28;19909;-70
2023/04/07 07:24:42;;;;;;;;;;;154.10;2252.80;;;;;;5063828;28;20025;-69
2023/04/07 07:27:08;;;;;;;67.50;35.05;;;154.10;2252.80;;;;;;5062651;28;20353;-69
2023/04/07 07:29:33;;;;;;;;;;;154.10;2252.80;;;;;;5067254;28;20465;-70
2023/04/07 07:31:59;;;;;;;59.35;32.08;;;154.10;2252.80;;;;;;5060266;28;19980;-69
2023/04/07 07:34:24;;;;;;;;;;;154.20;2252.80;;;;;;5061486;28;20036;-69
2023/04/07 07:36:50;;;;;;;43.13;24.67;;;154.30;2252.80;;;;;;5068762;28;20319;-70
2023/04/07 07:39:16;;;;;;;;;;;154.30;2252.80;;;;;;5063706;28;20037;-70
2023/04/07 07:41:42;;;;;;;39.78;23.73;;;154.40;2252.80;;;;;;5063801;28;19905;-69
2023/04/07 07:44:07;;;;;;;;;;;154.30;2252.80;;;;;;5061740;28;20115;-69
2023/04/07 07:46:33;;;;;;;41.25;22.67;;;154.30;2252.80;;;;;;5065723;28;20354;-70
2023/04/07 07:48:59;;;;;;;;;;;154.30;2252.80;;;;;;5061749;28;20025;-69
2023/04/07 07:51:24;;;;;;;39.33;21.65;;;154.40;2252.80;;;;;;5067773;28;19919;-69
2023/04/07 07:53:51;;;;;;;;;;;154.40;2252.80;;;;;;5063468;28;20036;-69
2023/04/07 07:56:17;;;;;;;32.45;18.98;;;154.40;2252.80;;;;;;5063411;28;19916;-70
2023/04/07 07:58:42;;;;;;;;;;;154.50;2252.80;;;;;;5062030;28;20080;-71
2023/04/07 08:01:08;;;;;;;36.97;20.02;;;154.50;2252.80;;;;;;5068213;28;19923;-70
2023/04/07 08:03:33;;;;;;;;;;;154.50;2252.80;;;;;;5062680;28;20016;-69
2023/04/07 08:06:00;;;;;;;31.35;18.25;;;154.50;2252.80;;;;;;5061176;28;19915;-69
2023/04/07 08:08:25;;;;;;;31.67;18.05;;;154.50;2252.80;;;;;;5066141;28;20039;-69
2023/04/07 08:10:51;;;;;;;;;;;179.30;2252.80;;;;;;5059996;28;20021;-69
2023/04/07 08:13:16;;;;;;;38.35;20.98;;;179.30;2252.80;;;;;;5059831;28;19974;-69
2023/04/07 08:15:42;;;;;;;;;;;179.30;2252.80;;;;;;5063241;28;20051;-69
2023/04/07 08:18:08;;;;;;;36.80;21.67;;;179.30;2252.80;;;;;;5065675;28;20270;-69
2023/04/07 08:20:33;;;;;;;;;;;179.30;2252.80;;;;;;5061546;28;20447;-69
2023/04/07 08:23:01;;;;;;;47.30;26.83;;;179.40;2252.80;;;;;;5062275;28;19910;-69
2023/04/07 08:25:27;;;;;;;39.28;23.15;;;179.30;2252.80;;;;;;5066175;28;20017;-70
2023/04/07 08:27:53;;;;;;;39.08;20.55;;;179.40;2252.80;;;;;;5064869;28;20062;-71
2023/04/07 08:30:20;;;;;;;;;;;179.30;2252.80;;;;;;5069226;28;20031;-69
2023/04/07 08:32:46;;;;;;;33.28;17.55;;;179.30;2252.80;;;;;;5060153;28;19947;-69
2023/04/07 08:35:11;;;;;;;;;;;179.40;2252.80;;;;;;5071241;28;20048;-70
2023/04/07 08:37:38;;;;;;;38.40;19.00;;;179.40;2252.80;;;;;;5065055;28;20360;-69
2023/04/07 08:40:04;;;;;;;30.75;18.63;;;179.40;2252.80;;;;;;5069195;28;20043;-69
2023/04/07 08:42:32;;;;;;;34.22;19.88;;;179.40;2252.80;;;;;;5064050;28;20024;-68
2023/04/07 08:45:08;;;;;;;34.15;20.42;;;179.50;2252.80;;;;;;5062674;28;20037;-70
2023/04/07 08:47:35;;;;;;;37.55;23.10;;;179.60;2252.80;;;;;;5064643;28;20033;-72
2023/04/07 08:50:09;;;;;;;41.20;24.35;;;179.70;2252.80;;;;;;5066240;28;20028;-71
2023/04/07 08:52:50;;;;;;;40.33;23.45;;;179.80;2252.80;;;;;;5063240;28;20386;-70
2023/04/07 08:55:16;;;;;;;37.45;21.55;;;179.80;2252.80;;;;;;5068589;28;20104;-72
2023/04/07 08:57:42;;;;;;;;;;;179.70;2252.80;;;;;;5063148;28;20493;-70
2023/04/07 09:00:09;;;;;;;29.83;18.88;;;179.80;2252.80;;;;;;5069053;28;20438;-71
2023/04/07 09:02:43;;;;;;;39.70;21.80;;;179.80;2252.80;;;;;;5064728;28;20020;-70
2023/04/07 09:05:09;;;;;;;40.13;23.60;;;179.70;2252.80;;;;;;5060983;28;20032;-69
2023/04/07 09:07:36;;;;;;;40.17;22.70;;;179.70;2252.80;;;;;;5064473;28;20025;-71
2023/04/07 09:10:03;;;;;;;39.63;22.92;;;179.70;2252.80;;;;;;5064890;28;20021;-69
2023/04/07 09:12:30;;;;;;;42.28;24.55;;;179.70;2252.80;;;;;;5056463;28;20021;-71
2023/04/07 09:14:57;;;;;;;35.20;20.77;;;179.70;2252.80;;;;;;5065901;28;20382;-70
2023/04/07 09:17:25;;;;;;;38.40;22.17;;;179.80;2252.80;;;;;;5066249;28;20045;-71
2023/04/07 09:19:52;;;;;;;34.80;21.42;;;179.80;2252.80;;;;;;5057405;28;20021;-69
2023/04/07 09:22:50;;;;;;;36.90;21.73;;;179.90;2252.80;;;;;;5082059;28;20029;-69
2023/04/07 09:25:16;;;;;;;37.08;21.92;;;179.90;2252.80;;;;;;5033265;28;20033;-69
2023/04/07 09:27:58;;;;;;;;;;;179.80;2252.80;;;;;;5036799;28;20034;-69
2023/04/07 09:30:24;;;;;;;36.33;21.50;;;179.80;2252.80;;;;;;5036623;28;20064;-69
2023/04/07 09:32:50;;;;;;;31.70;20.50;;;179.80;2252.80;;;;;;5044179;28;20056;-73
2023/04/07 09:35:16;;;;;;;37.17;22.27;;;179.90;2252.80;;;;;;5037397;28;20487;-69
2023/04/07 09:37:42;;;;;;;;;;;180.00;2252.80;;;;;;5040260;28;20048;-69
2023/04/07 09:40:08;;;;;;;32.45;17.90;;;180.00;2252.80;;;;;;5035403;28;20003;-70
2023/04/07 09:42:36;;;;;;;34.20;21.08;;;180.00;2252.80;;;;;;5039835;28;20053;-70
2023/04/07 09:45:02;;;;;;;30.73;18.40;;;180.10;2252.80;;;;;;5035323;28;20045;-69
2023/04/07 09:47:30;;;;;;;31.63;18.77;;;180.00;2252.80;;;;;;5044446;28;20102;-68
2023/04/07 09:49:58;;;;;;;31.48;19.52;;;180.00;2252.80;;;;;;5032828;28;20120;-70
2023/04/07 09:52:50;;;;;;;30.95;17.65;;;179.90;2252.80;;;;;;5042090;28;20510;-70
2023/04/07 09:55:17;;;;;;;32.20;18.08;;;179.80;2252.80;;;;;;5040276;28;20041;-69
2023/04/07 09:57:44;;;;;;;32.63;18.95;;;179.80;2252.80;;;;;;5041945;28;20128;-73
2023/04/07 10:00:12;;;;;;;27.65;17.80;;;179.70;2252.80;;;;;;5036439;28;20030;-69
2023/04/07 10:02:38;;;;;;;34.70;19.95;;;179.80;2252.80;;;;;;5040879;28;20029;-69
2023/04/07 10:05:03;;;;;;;;;;;179.80;2252.80;;;;;;5039128;28;20076;-73
2023/04/07 10:07:30;;;;;;;39.47;20.88;;;179.80;2252.80;;;;;;5045189;28;20390;-68
2023/04/07 10:09:56;;;;;;;33.95;21.90;;;179.80;2252.80;;;;;;5037926;28;20482;-70
2023/04/07 10:12:23;;;;;;;;;;;179.90;2252.80;;;;;;5040449;28;20032;-69
2023/04/07 10:14:49;;;;;;;33.53;19.23;;;179.90;2252.80;;;;;;5039097;28;19916;-73
2023/04/07 10:17:18;;;;;;;25.15;15.98;;;179.90;2252.80;;;;;;5043358;28;20057;-71
2023/04/07 10:19:45;;;;;;;24.67;16.00;;;179.90;2252.80;;;;;;5037736;28;20127;-69
2023/04/07 10:22:13;;;;;;;27.73;17.30;;;179.90;2252.80;;;;;;5038825;28;20029;-70
2023/04/07 10:24:54;;;;;;;26.08;18.23;;;179.90;2252.80;;;;;;5042358;28;20478;-69
2023/04/07 10:27:26;;;;;;;25.65;16.73;;;180.00;2252.80;;;;;;5044576;28;20138;-69
2023/04/07 10:29:53;;;;;;;28.27;16.42;;;180.00;2252.80;;;;;;5038241;28;20527;-70
2023/04/07 10:32:19;;;;;;;24.35;15.25;;;180.10;2252.80;;;;;;5038141;28;20030;-69
2023/04/07 10:34:52;;;;;;;27.10;17.23;;;204.80;2252.80;;;;;;5048527;28;20037;-70
2023/04/07 10:37:21;;;;;;;26.17;18.15;;;204.90;2252.80;;;;;;5042738;28;20017;-70
2023/04/07 10:40:10;;;;;;;27.10;16.67;;;204.90;2252.80;;;;;;5035932;28;20030;-70
2023/04/07 10:42:36;;;;;;;27.15;15.98;;;204.80;2252.80;;;;;;5038232;28;20021;-69
2023/04/07 10:45:02;;;;;;;;;;;204.90;2252.80;;;;;;5048401;28;20091;-68
2023/04/07 10:47:28;;;;;;;25.20;16.00;;;204.80;2252.80;;;;;;5056711;28;19916;-69
2023/04/07 10:50:19;;;;;;;26.98;14.88;;;180.10;2252.80;;;;;;5065509;28;20052;-74
2023/04/07 10:52:47;;;;;;;26.33;16.50;;;180.10;2252.80;;;;;;5056450;28;20033;-69
2023/04/07 10:55:33;;;;;;;26.73;17.10;;;204.80;2252.80;;;;;;5060600;28;20017;-70
2023/04/07 10:58:15;;;;;;;27.00;17.25;;;204.80;2252.80;;;;;;5059530;28;20063;-71
2023/04/07 11:00:43;;;;;;;25.25;16.55;;;204.80;2252.80;;;;;;5063097;28;20513;-71
2023/04/07 11:03:12;;;;;;;23.75;16.33;;;204.80;2252.80;;;;;;5066446;28;20032;-69
2023/04/07 11:05:42;;;;;;;29.02;16.20;;;204.80;2252.80;;;;;;5061146;28;20036;-69
2023/04/07 11:08:08;;;;;;;30.50;15.38;;;204.80;2252.80;;;;;;5059309;28;20025;-71
2023/04/07 11:10:34;;;;;;;;;;;204.80;2252.80;;;;;;5063246;28;20508;-70
2023/04/07 11:13:07;;;;;;;27.88;16.20;;;204.90;2252.80;;;;;;5060764;28;19916;-69
2023/04/07 11:15:37;;;;;;;28.58;18.17;;;205.00;2252.80;;;;;;5063127;28;20024;-69
2023/04/07 11:18:08;;;;;;;25.65;16.60;;;205.00;2252.80;;;;;;5058585;28;20041;-68
2023/04/07 11:20:47;;;;;;;23.15;15.40;;;205.00;2252.80;;;;;;5058716;28;20551;-70
2023/04/07 11:23:15;;;;;;;23.13;15.60;;;205.10;2252.80;;;;;;5059349;28;20116;-70
2023/04/07 11:25:46;;;;;;;27.00;17.63;;;205.00;2252.80;;;;;;5058590;28;20028;-69
2023/04/07 11:28:13;;;;;;;39.72;19.15;;;205.00;2252.80;;;;;;5059551;28;20393;-68
2023/04/07 11:30:50;;;;;;;28.40;16.52;;;204.90;2252.80;;;;;;5062827;28;20460;-69
2023/04/07 11:33:18;;;;;;;20.90;14.25;;;205.10;2252.80;;;;;;5057972;28;20063;-73
2023/04/07 11:36:13;;;;;;;20.38;13.75;;;205.10;2252.80;;;;;;5061128;28;20028;-72
2023/04/07 11:38:39;;;;;;;22.83;15.27;;;205.10;2252.80;;;;;;5042554;28;20131;-68
2023/04/07 11:41:12;;;;;;;;;;;205.00;2252.80;;;;;;5035454;28;20067;-74
2023/04/07 11:43:40;;;;;;;28.40;18.00;;;205.00;2252.80;;;;;;5038827;28;19904;-69
2023/04/07 11:46:06;;;;;;;17.50;12.80;;;204.90;2252.80;;;;;;5038851;28;20057;-72
2023/04/07 11:48:33;;;;;;;;;;;205.00;2252.80;;;;;;5036162;28;20049;-69
2023/04/07 11:51:00;;;;;;;15.43;11.73;;;205.10;2252.80;;;;;;5038105;28;19909;-73
2023/04/07 11:53:31;;;;;;;18.42;11.57;;;205.10;2252.80;;;;;;5039882;28;20306;-70
2023/04/07 11:56:06;;;;;;;20.25;12.23;;;205.30;2252.80;;;;;;5034531;28;20044;-69
2023/04/07 11:58:32;;;;;;;17.88;12.25;;;205.20;2252.80;;;;;;5035982;28;20044;-70
2023/04/07 12:01:02;;;;;;;;;;;205.20;2252.80;;;;;;5033823;28;20394;-69
2023/04/07 12:03:28;;;;;;;18.40;12.07;;;205.20;2252.80;;;;;;5041284;28;20366;-74
2023/04/07 12:05:54;;;;;;;20.27;13.95;;;205.20;2252.80;;;;;;5002702;28;20504;-68
2023/04/07 12:08:20;;;;;;;;;;;205.30;2252.80;;;;;;5037731;28;20029;-69
2023/04/07 12:10:47;;;;;;;22.70;14.05;;;205.30;2252.80;;;;;;5038257;28;19948;-70
2023/04/07 12:13:13;;;;;;;21.52;14.15;;;205.30;2252.80;;;;;;5036766;28;20076;-69
2023/04/07 12:15:38;;;;;;;21.00;14.02;;;205.30;2252.80;;;;;;5060862;28;20024;-71
2023/04/07 12:18:04;;;;;;;;;;;205.50;2252.80;;;;;;5064135;28;20044;-68
2023/04/07 12:20:30;;;;;;;19.23;12.38;;;205.50;2252.80;;;;;;5073867;28;19912;-69
2023/04/07 12:22:56;;;;;;;;;;;205.50;2252.80;;;;;;5066830;28;20385;-69
2023/04/07 12:25:22;;;;;;;20.13;12.07;;;205.50;2252.80;;;;;;5064419;28;19908;-70
2023/04/07 12:27:48;;;;;;;;;;;205.40;2252.80;;;;;;5066824;28;20021;-71
2023/04/07 12:30:13;;;;;;;24.38;15.25;;;205.50;2252.80;;;;;;5069326;28;19916;-68